Strona główna
METAR-TAF:

METAR-TAF

Lotnisko :

Baza lotnicza

Meppen, Niemcy

Szerokość geograficzna: 52-43-24N, Długość geograficzna: 007-19-35E, wysokość: 21 m

Aktualna obserwacja pogody

Raport powstał 28 minut temu, godzina 04:20 UTC
Wiatr 6 kt od zachodnio-południowy zachód
Temperatura 1°C
Wilgotność 93%
Ciśnienie 1012 hPa

METAR: ETWM 280420Z AUTO 25006KT //// // ////// 01/M00 Q1012 ///

czas: 05:48 (04:48 UTC)


TAF: brakujący

Obserwacja i prognoza pogody dla ponad 4000 lotnisk (raport METAR i TAF).

Dostępne stacje oznaczono żółtymi i czerwonymi punktami na mapie.

Najedź kursorem aby zobaczyć nazwę stacji.

Kliknij aby zobaczyć obserwacje i prognozy pogody.

Aby zmienić mapę: kliknij na zielony przycisk z czarnym krzyżykiem, aby powiększyć; na zielony przycisk z myślnikiem, aby pomniejszyć; na zielone strzałki, aby przejść do map sąsiednich.


METAR-TAF: